createdAt,value
2023-02-13T00:04:52.184Z,48.14
2023-02-13T00:09:56.561Z,48.64
2023-02-13T00:15:00.469Z,48.89
2023-02-13T00:20:03.370Z,48.29
2023-02-13T00:25:08.462Z,48.16
2023-02-13T00:30:11.913Z,48.44
2023-02-13T00:35:14.880Z,48.24
2023-02-13T00:40:19.322Z,48.44
2023-02-13T00:45:22.282Z,48.18
2023-02-13T00:50:25.236Z,48.26
2023-02-13T00:55:29.603Z,48.27
2023-02-13T01:00:32.777Z,48.69
2023-02-13T01:05:35.773Z,49.40
2023-02-13T01:10:40.600Z,49.15
2023-02-13T01:15:43.754Z,49.18
2023-02-13T01:20:47.101Z,48.83
2023-02-13T01:25:51.893Z,49.01
2023-02-13T01:30:55.760Z,49.32
2023-02-13T01:36:00.593Z,49.03
2023-02-13T01:41:05.036Z,49.16
2023-02-13T01:46:08.133Z,49.72
2023-02-13T01:51:13.930Z,49.86
2023-02-13T01:56:19.913Z,49.81
2023-02-13T02:01:23.559Z,49.30
2023-02-13T02:06:28.675Z,49.29
2023-02-13T02:11:45.759Z,49.92
2023-02-13T02:16:48.815Z,49.55
2023-02-13T02:22:06.665Z,49.75
2023-02-13T02:27:19.440Z,49.61
2023-02-13T02:32:44.132Z,49.91
2023-02-13T02:37:53.470Z,49.80
2023-02-13T02:43:01.898Z,50.02
2023-02-13T02:48:26.286Z,50.21
2023-02-13T02:53:33.152Z,50.08
2023-02-13T02:58:56.613Z,49.91
2023-02-13T03:04:19.357Z,49.72
2023-02-13T03:09:43.039Z,50.11
2023-02-13T03:14:46.120Z,50.19
2023-02-13T03:20:14.445Z,50.26
2023-02-13T03:25:30.526Z,50.37
2023-02-13T03:30:40.318Z,50.45
2023-02-13T03:36:06.127Z,50.50
2023-02-13T03:41:21.603Z,50.68
2023-02-13T03:46:25.925Z,50.59
2023-02-13T03:51:31.994Z,50.91
2023-02-13T03:56:54.090Z,50.77
2023-02-13T04:02:01.324Z,50.32
2023-02-13T04:07:07.753Z,50.45
2023-02-13T04:12:15.797Z,50.49
2023-02-13T04:17:21.494Z,50.40
2023-02-13T04:22:25.879Z,50.87
2023-02-13T04:27:29.424Z,50.98
2023-02-13T04:32:32.397Z,50.80
2023-02-13T04:37:36.738Z,50.79
2023-02-13T04:42:39.754Z,50.45
2023-02-13T04:47:42.680Z,51.08
2023-02-13T04:52:47.208Z,51.15
2023-02-13T04:57:50.201Z,50.48
2023-02-13T05:02:53.172Z,50.41
2023-02-13T05:07:57.491Z,50.33
2023-02-13T05:13:00.625Z,51.09
2023-02-13T05:18:03.563Z,51.16
2023-02-13T05:23:26.428Z,50.56
2023-02-13T05:28:47.096Z,50.96
2023-02-13T05:33:50.056Z,50.96
2023-02-13T05:38:54.416Z,50.94
2023-02-13T05:43:57.378Z,51.40
2023-02-13T05:49:00.327Z,51.49
2023-02-13T05:54:04.825Z,51.31
2023-02-13T05:59:07.782Z,51.45
2023-02-13T06:04:10.698Z,51.71
2023-02-13T06:09:15.192Z,51.64
2023-02-13T06:14:18.189Z,51.73
2023-02-13T06:19:21.202Z,52.20
2023-02-13T06:24:25.590Z,51.99
2023-02-13T06:29:28.513Z,52.67
2023-02-13T06:34:31.512Z,52.39
2023-02-13T06:39:35.884Z,52.03
2023-02-13T06:44:38.892Z,51.98
2023-02-13T06:49:41.843Z,52.06
2023-02-13T06:54:48.034Z,52.17
2023-02-13T06:59:51.244Z,52.16
2023-02-13T07:04:54.229Z,52.34
2023-02-13T07:09:58.696Z,51.83
2023-02-13T07:15:01.685Z,52.17
2023-02-13T07:20:05.842Z,52.20
2023-02-13T07:25:10.599Z,52.38
2023-02-13T07:30:14.599Z,52.44
2023-02-13T07:35:17.531Z,52.51
2023-02-13T07:40:22.229Z,52.35
2023-02-13T07:45:25.248Z,52.52
2023-02-13T07:50:28.550Z,52.12
2023-02-13T07:55:32.956Z,52.39
2023-02-13T08:00:35.942Z,53.00
2023-02-13T08:05:39.501Z,52.24
2023-02-13T08:11:01.192Z,52.68
2023-02-13T08:16:04.368Z,52.02
2023-02-13T08:21:07.594Z,52.91
2023-02-13T08:26:12.089Z,52.27
2023-02-13T08:31:15.237Z,52.83
2023-02-13T08:36:19.338Z,52.23
2023-02-13T08:41:24.011Z,52.54
2023-02-13T08:46:26.951Z,51.98
2023-02-13T08:51:29.956Z,52.09
2023-02-13T08:56:35.266Z,52.56
2023-02-13T09:01:38.382Z,52.42
2023-02-13T09:06:41.419Z,51.94
2023-02-13T09:11:46.002Z,51.35
2023-02-13T09:16:48.970Z,51.75
2023-02-13T09:21:52.091Z,52.05
2023-02-13T09:26:58.556Z,51.42
2023-02-13T09:32:01.637Z,51.95
2023-02-13T09:37:04.724Z,51.26
2023-02-13T09:42:16.888Z,51.59
2023-02-13T09:47:24.117Z,51.53
2023-02-13T09:52:28.043Z,50.88
2023-02-13T09:57:35.060Z,50.63
2023-02-13T10:02:44.228Z,50.92
2023-02-13T10:07:51.074Z,50.38
2023-02-13T10:12:59.167Z,50.79
2023-02-13T10:18:05.068Z,50.04
2023-02-13T10:23:14.288Z,50.10
2023-02-13T10:28:20.622Z,49.63
2023-02-13T10:33:27.304Z,49.19
2023-02-13T10:38:31.800Z,48.86
2023-02-13T10:43:40.666Z,48.71
2023-02-13T10:48:50.175Z,48.51
2023-02-13T10:53:59.770Z,48.16
2023-02-13T10:59:20.255Z,47.95
2023-02-13T11:04:23.386Z,47.48
2023-02-13T11:09:26.798Z,46.93
2023-02-13T11:14:31.219Z,46.75
2023-02-13T11:19:35.796Z,46.44
2023-02-13T11:24:41.361Z,45.33
2023-02-13T11:29:56.242Z,43.48
2023-02-13T11:35:00.923Z,40.17
2023-02-13T11:40:22.831Z,39.08
2023-02-13T11:45:27.738Z,39.10
2023-02-13T11:50:31.800Z,39.04
2023-02-13T11:55:35.531Z,37.04
2023-02-13T12:00:41.808Z,35.82
2023-02-13T12:06:01.078Z,35.42
2023-02-13T12:11:05.657Z,37.16
2023-02-13T12:16:15.623Z,38.52
2023-02-13T12:21:26.766Z,39.46
2023-02-13T12:26:33.065Z,40.23
2023-02-13T12:31:43.138Z,40.88
2023-02-13T12:36:51.838Z,41.22
2023-02-13T12:42:02.256Z,41.68
2023-02-13T12:47:12.552Z,41.15
2023-02-13T12:52:22.599Z,41.70
2023-02-13T12:57:34.237Z,42.30
2023-02-13T13:02:58.142Z,41.88
2023-02-13T13:08:11.623Z,42.58
2023-02-13T13:13:19.208Z,42.00
2023-02-13T13:18:30.594Z,41.57
2023-02-13T13:23:34.180Z,41.01
2023-02-13T13:28:39.974Z,39.83
2023-02-13T13:33:45.986Z,40.49
2023-02-13T13:38:54.250Z,40.68
2023-02-13T13:44:05.247Z,41.50
2023-02-13T13:49:14.140Z,38.87
2023-02-13T13:54:21.699Z,36.94
2023-02-13T13:59:39.462Z,37.58
2023-02-13T14:05:01.311Z,37.49
2023-02-13T14:10:04.435Z,37.39
2023-02-13T14:15:27.584Z,37.24
2023-02-13T14:20:39.148Z,38.48
2023-02-13T14:25:42.269Z,38.42
2023-02-13T14:30:45.481Z,39.08
2023-02-13T14:36:00.337Z,40.31
2023-02-13T14:41:04.331Z,40.47
2023-02-13T14:46:15.751Z,40.75
2023-02-13T14:51:28.807Z,41.19
2023-02-13T14:56:32.691Z,40.95
2023-02-13T15:01:37.372Z,41.04
2023-02-13T15:06:43.056Z,40.81
2023-02-13T15:11:45.977Z,41.06
2023-02-13T15:16:51.788Z,41.23
2023-02-13T15:21:57.911Z,41.25
2023-02-13T15:27:03.054Z,40.87
2023-02-13T15:32:20.800Z,40.94
2023-02-13T15:37:25.883Z,41.46
2023-02-13T15:42:28.904Z,41.16
2023-02-13T15:47:32.961Z,41.03
2023-02-13T15:52:39.422Z,41.75
2023-02-13T15:57:42.666Z,41.47
2023-02-13T16:02:47.873Z,41.73
2023-02-13T16:07:53.778Z,41.79
2023-02-13T16:12:57.884Z,39.76
2023-02-13T16:18:00.975Z,39.35
2023-02-13T16:23:08.491Z,39.13
2023-02-13T16:28:18.233Z,38.77
2023-02-13T16:33:23.260Z,38.85
2023-02-13T16:38:33.534Z,38.90
2023-02-13T16:43:41.395Z,39.07
2023-02-13T16:48:45.326Z,40.18
2023-02-13T16:53:57.649Z,40.31
2023-02-13T16:59:05.881Z,40.72
2023-02-13T17:04:16.740Z,40.93
2023-02-13T17:09:21.251Z,41.93
2023-02-13T17:14:24.286Z,41.56
2023-02-13T17:19:28.567Z,42.68
2023-02-13T17:24:33.074Z,42.92
2023-02-13T17:29:36.034Z,42.36
2023-02-13T17:34:39.008Z,43.67
2023-02-13T17:39:43.387Z,43.31
2023-02-13T17:44:46.572Z,44.07
2023-02-13T17:49:50.267Z,43.79
2023-02-13T17:54:54.632Z,44.00
2023-02-13T17:59:59.344Z,45.97
2023-02-13T18:05:02.985Z,45.46
2023-02-13T18:10:08.451Z,47.39
2023-02-13T18:15:11.963Z,45.19
2023-02-13T18:20:15.880Z,47.46
2023-02-13T18:25:20.783Z,46.33
2023-02-13T18:30:23.810Z,46.55
2023-02-13T18:35:26.795Z,46.24
2023-02-13T18:40:31.281Z,46.13
2023-02-13T18:45:34.351Z,46.61
2023-02-13T18:50:39.620Z,47.05
2023-02-13T18:55:43.986Z,46.95
2023-02-13T19:00:46.914Z,47.03
2023-02-13T19:05:49.890Z,48.38
2023-02-13T19:10:54.267Z,48.49
2023-02-13T19:15:57.305Z,48.53
2023-02-13T19:21:00.789Z,49.91
2023-02-13T19:26:07.519Z,49.08
2023-02-13T19:31:11.787Z,49.50
2023-02-13T19:36:17.305Z,50.18
2023-02-13T19:41:22.822Z,49.43
2023-02-13T19:46:27.145Z,49.23
2023-02-13T19:51:31.227Z,50.42
2023-02-13T19:56:37.135Z,49.32
2023-02-13T20:01:41.728Z,50.32
2023-02-13T20:06:45.575Z,49.76
2023-02-13T20:11:50.720Z,50.14
2023-02-13T20:16:53.734Z,50.31
2023-02-13T20:21:56.857Z,52.33
2023-02-13T20:27:01.248Z,52.87
2023-02-13T20:32:04.350Z,52.53
2023-02-13T20:37:07.601Z,52.73
2023-02-13T20:42:11.998Z,52.18
2023-02-13T20:47:15.019Z,52.71
2023-02-13T20:52:18.061Z,52.99
2023-02-13T20:57:22.404Z,52.83
2023-02-13T21:02:25.402Z,53.89
2023-02-13T21:07:29.873Z,53.09
2023-02-13T21:12:35.265Z,53.32
2023-02-13T21:17:38.203Z,54.89
2023-02-13T21:22:41.190Z,53.52
2023-02-13T21:27:45.583Z,53.87
2023-02-13T21:32:48.561Z,54.35
2023-02-13T21:37:51.570Z,55.12
2023-02-13T21:42:56.000Z,55.62
2023-02-13T21:47:59.012Z,55.34
2023-02-13T21:53:02.017Z,55.68
2023-02-13T21:58:06.362Z,56.67
2023-02-13T22:03:09.409Z,56.46
2023-02-13T22:08:12.511Z,57.01
2023-02-13T22:13:16.953Z,57.00
2023-02-13T22:18:19.916Z,56.19
2023-02-13T22:23:22.871Z,56.67
2023-02-13T22:28:27.248Z,58.80
2023-02-13T22:33:30.259Z,57.99
2023-02-13T22:38:33.938Z,58.64
2023-02-13T22:43:38.699Z,57.51
2023-02-13T22:48:42.130Z,58.35
2023-02-13T22:53:45.559Z,58.83
2023-02-13T22:58:49.882Z,59.30
2023-02-13T23:03:53.512Z,59.27
2023-02-13T23:08:57.245Z,58.37
2023-02-13T23:14:01.677Z,58.66
2023-02-13T23:19:04.893Z,57.89
2023-02-13T23:24:08.229Z,57.49
2023-02-13T23:29:12.582Z,58.19
2023-02-13T23:34:15.531Z,58.08
2023-02-13T23:39:18.547Z,58.05
2023-02-13T23:44:22.889Z,57.90
2023-02-13T23:49:25.931Z,58.05
2023-02-13T23:54:28.877Z,57.72
2023-02-13T23:59:33.662Z,57.79
